Sds Green — ICOK — position and weather

sailwx.info

Track history (hours):
 
Tides and Currents Weather Stations Pressure Air Temp Water Temp Dewpoint Dewpoint Depression Visibility Wind Speed Wind Dir Waves Ship Positions

Sds Green

Last reported at 2017-Mar-21 04:28 UTC. Time now 2017-Mar-24 06:16 UTC.
Position N 40°47' E 017°55'.

Length 108 m; draft 7.3 m.

Type: Cargo ship. MMSI: 247292200.

Date/timePositionNaut miles runAvg speedWind from/ knotsBaromVisibWave heightAir tempDewpointWater temp
2017-Mar-21 04:28N 40°47' E 017°55'1210.2
2017-Mar-21 03:20N 40°41' E 018°08'84 8.5
2017-Mar-20 17:31N 39°19' E 017°47'1111.0
2017-Mar-20 16:30N 39°11' E 017°37'11010.9
2017-Mar-20 06:25N 37°52' E 015°59'910.6
2017-Mar-20 05:33N 37°52' E 015°48'1110.8
2017-Mar-20 04:33N 37°59' E 015°37'1212.2
2017-Mar-20 03:34N 38°11' E 015°36'8 8.4
2017-Mar-20 02:33N 38°19' E 015°36'1110.9
2017-Mar-20 01:34N 38°25' E 015°25'1111.3
2017-Mar-20 00:33N 38°31' E 015°12'1111.3
2017-Mar-19 23:34N 38°37' E 015°00'1111.1
2017-Mar-19 22:33N 38°43' E 014°48'  
2017-Mar-17 18:17N 42°43' E 004°07'710.3
2017-Mar-17 17:33N 42°45' E 003°57'1010.3
2017-Mar-17 16:33N 42°49' E 003°44'1010.1
2017-Mar-17 15:33N 42°53' E 003°31'1110.2
2017-Mar-17 14:30N 42°56' E 003°17'1010.1
2017-Mar-17 13:33N 43°00' E 003°05'2 0.1
2017-Mar-17 00:30N 43°01' E 003°03'0 0.0
2017-Mar-16 23:24N 43°01' E 003°03'0 0.0
2017-Mar-16 22:33N 43°01' E 003°03'0 0.0
2017-Mar-16 21:27N 43°01' E 003°03'72 4.6
2017-Mar-16 05:33N 41°49' E 003°12'1211.9
2017-Mar-16 04:33N 41°41' E 002°60'1211.8
2017-Mar-16 03:33N 41°33' E 002°48'1212.1
2017-Mar-16 02:33N 41°25' E 002°36'1211.9
2017-Mar-16 01:33N 41°17' E 002°24'1211.7
2017-Mar-16 00:33N 41°10' E 002°12'1211.6
2017-Mar-15 23:34N 41°02' E 002°01'1111.2
2017-Mar-15 22:33N 40°54' E 001°50'1211.3
2017-Mar-15 21:32N 40°47' E 001°38'5211.9
2017-Mar-15 17:12N 40°14' E 000°47'811.8
2017-Mar-15 16:33N 40°09' E 000°39'4911.4
2017-Mar-15 12:17N 39°38' W 000°10'1 0.0
2017-Mar-14 07:33N 39°37' W 000°11'1 0.2
2017-Mar-14 03:12N 39°37' W 000°10'5110.2
2017-Mar-13 22:11N 40°10' E 000°41'710.4
2017-Mar-13 21:30N 40°15' E 000°48'1010.5
2017-Mar-13 20:34N 40°21' E 000°58'1010.3
2017-Mar-13 19:33N 40°28' E 001°09'1010.4
2017-Mar-13 18:33N 40°35' E 001°19'1010.4
2017-Mar-13 17:33N 40°41' E 001°30'10 9.8
2017-Mar-13 16:34N 40°49' E 001°38'1010.3
2017-Mar-13 15:33N 40°56' E 001°47'1110.6
2017-Mar-13 14:33N 41°04' E 001°56'19 0.5
2017-Mar-12 02:29N 41°21' E 002°09'0 0.0
2017-Mar-12 01:29N 41°21' E 002°09'0 0.0
2017-Mar-11 23:26N 41°21' E 002°09'3 3.3
2017-Mar-11 22:33N 41°18' E 002°11'9 8.8
2017-Mar-11 21:33N 41°21' E 002°22'1010.5
2017-Mar-11 20:33N 41°26' E 002°34'1110.5
2017-Mar-11 19:32N 41°31' E 002°47'1010.4
2017-Mar-11 18:32N 41°36' E 002°59'  
Track history (hours):
 
Tides and Currents Weather Stations Pressure Air Temp Water Temp Dewpoint Dewpoint Depression Visibility Wind Speed Wind Dir Waves Ship Positions

Sds Green

Last reported at 2017-Mar-21 04:28 UTC. Time now 2017-Mar-24 06:16 UTC.
Position N 40°47' E 017°55'.

Length 108 m; draft 7.3 m.

Type: Cargo ship. MMSI: 247292200.

Date/timePositionNaut miles runAvg speedWind from/ knotsBaromVisibWave heightAir tempDewpointWater temp
2017-Mar-21 04:28N 40°47' E 017°55'1210.2
2017-Mar-21 03:20N 40°41' E 018°08'84 8.5
2017-Mar-20 17:31N 39°19' E 017°47'1111.0
2017-Mar-20 16:30N 39°11' E 017°37'11010.9
2017-Mar-20 06:25N 37°52' E 015°59'910.6
2017-Mar-20 05:33N 37°52' E 015°48'1110.8
2017-Mar-20 04:33N 37°59' E 015°37'1212.2
2017-Mar-20 03:34N 38°11' E 015°36'8 8.4
2017-Mar-20 02:33N 38°19' E 015°36'1110.9
2017-Mar-20 01:34N 38°25' E 015°25'1111.3
2017-Mar-20 00:33N 38°31' E 015°12'1111.3
2017-Mar-19 23:34N 38°37' E 015°00'1111.1
2017-Mar-19 22:33N 38°43' E 014°48'  
2017-Mar-17 18:17N 42°43' E 004°07'710.3
2017-Mar-17 17:33N 42°45' E 003°57'1010.3
2017-Mar-17 16:33N 42°49' E 003°44'1010.1
2017-Mar-17 15:33N 42°53' E 003°31'1110.2
2017-Mar-17 14:30N 42°56' E 003°17'1010.1
2017-Mar-17 13:33N 43°00' E 003°05'2 0.1
2017-Mar-17 00:30N 43°01' E 003°03'0 0.0
2017-Mar-16 23:24N 43°01' E 003°03'0 0.0
2017-Mar-16 22:33N 43°01' E 003°03'0 0.0
2017-Mar-16 21:27N 43°01' E 003°03'72 4.6
2017-Mar-16 05:33N 41°49' E 003°12'1211.9
2017-Mar-16 04:33N 41°41' E 002°60'1211.8
2017-Mar-16 03:33N 41°33' E 002°48'1212.1
2017-Mar-16 02:33N 41°25' E 002°36'1211.9
2017-Mar-16 01:33N 41°17' E 002°24'1211.7
2017-Mar-16 00:33N 41°10' E 002°12'1211.6
2017-Mar-15 23:34N 41°02' E 002°01'1111.2
2017-Mar-15 22:33N 40°54' E 001°50'1211.3
2017-Mar-15 21:32N 40°47' E 001°38'5211.9
2017-Mar-15 17:12N 40°14' E 000°47'811.8
2017-Mar-15 16:33N 40°09' E 000°39'4911.4
2017-Mar-15 12:17N 39°38' W 000°10'1 0.0
2017-Mar-14 07:33N 39°37' W 000°11'1 0.2
2017-Mar-14 03:12N 39°37' W 000°10'5110.2
2017-Mar-13 22:11N 40°10' E 000°41'710.4
2017-Mar-13 21:30N 40°15' E 000°48'1010.5
2017-Mar-13 20:34N 40°21' E 000°58'1010.3
2017-Mar-13 19:33N 40°28' E 001°09'1010.4
2017-Mar-13 18:33N 40°35' E 001°19'1010.4
2017-Mar-13 17:33N 40°41' E 001°30'10 9.8
2017-Mar-13 16:34N 40°49' E 001°38'1010.3
2017-Mar-13 15:33N 40°56' E 001°47'1110.6
2017-Mar-13 14:33N 41°04' E 001°56'19 0.5
2017-Mar-12 02:29N 41°21' E 002°09'0 0.0
2017-Mar-12 01:29N 41°21' E 002°09'0 0.0
2017-Mar-11 23:26N 41°21' E 002°09'3 3.3
2017-Mar-11 22:33N 41°18' E 002°11'9 8.8
2017-Mar-11 21:33N 41°21' E 002°22'1010.5
2017-Mar-11 20:33N 41°26' E 002°34'1110.5
2017-Mar-11 19:32N 41°31' E 002°47'1010.4
2017-Mar-11 18:32N 41°36' E 002°59'  

Dump ship's entire track history